Ana Sayfa
METAR-TAF:

METAR-TAF

Havaalanları :

Edwards County Airport

Rocksprings, Teksas, Amerika Birleşik Devletleri

Enlem: 29-56-48N, Boylam: 100-10-25W, yükseklik: 723 m

Güncel hava durumu gözlemi

Rapor saat 02:35 UTC de 14 dakika önce yapıldı.
Rüzgar güneydoğudan 10 kt ve 18 kt'a kadar ani rüzgarlar
Sıcaklık 25°C
Nem 74%
Basınç 1016 hPa
Görüş mesafesi: 16.1 km
2800 ft yükseklikte parçalı çok bulutlu
3400 ft yükseklikte çok bulutlu

METAR: KECU 250235Z AUTO 14010G18KT 10SM BKN028 OVC034 25/20 A3001 RMK AO2

Saat: 21:49 (02:49 UTC)


TAF: eksik

4.000'den fazla havaalanı için hava durumu gözlemleri ve tahminleri (METAR ve TAF raporları).

Kullanılabilir istasyonlar harita üzerinde sarı ve kırmızı noktalarla gösterilir.

İstasyonun adını görmek için fareyi noktanın üzerinde gezdirin.

Sonrasında hava gözlem ve tahminlerini görmek için tıklayın.

Haritayı değiştirmek için: yaklaştırmak için siyah artı işaretli yeşil düğmeye ve uzaklaştırmak için de eksi işaretli düğmeye hızla tıklayın; bitişik haritalar için yeşil okları kullanın.


METAR-TAF: